SBI5316 UNAA-UNNT
Flight info
| Callsign | SBI5316 |
|---|---|
| Flight time | N/A |
| Altitude | 36000 |
| Route | N0460F360 KERAL R241 BEGIL |
| Aircraft | B738/M-VGDW/C |
Departure
| Time | N/A |
|---|---|
| Airport | Abakan International Airport (UNAA) |
Arrival
| Time | 2026-05-03 21:11 |
|---|---|
| Airport | Novosibirsk Tolmachevo Airport (UNNT) |
| Time | Latitude | Longitude | Altitude | Speed | Heading |
|---|---|---|---|---|---|
| 2026-05-03 20:15 | 53.76634 | 90.61043 | 20510 ft | 354 kts | 279° |
| 2026-05-03 20:15 | 53.76873 | 90.56902 | 21109 ft | 356 kts | 273° |
| 2026-05-03 20:15 | 53.76984 | 90.52690 | 21695 ft | 358 kts | 272° |
| 2026-05-03 20:15 | 53.77080 | 90.48465 | 22253 ft | 360 kts | 272° |
| 2026-05-03 20:16 | 53.77179 | 90.44274 | 22796 ft | 362 kts | 273° |
| 2026-05-03 20:16 | 53.77289 | 90.40010 | 23326 ft | 365 kts | 273° |
| 2026-05-03 20:16 | 53.77406 | 90.35713 | 23798 ft | 367 kts | 273° |
| 2026-05-03 20:16 | 53.77527 | 90.31366 | 24261 ft | 368 kts | 273° |
| 2026-05-03 20:17 | 53.77651 | 90.27032 | 24763 ft | 368 kts | 273° |
| 2026-05-03 20:17 | 53.77770 | 90.22760 | 25227 ft | 369 kts | 273° |
| 2026-05-03 20:17 | 53.77889 | 90.18423 | 25649 ft | 370 kts | 273° |
| 2026-05-03 20:17 | 53.78001 | 90.14062 | 26062 ft | 371 kts | 273° |
| 2026-05-03 20:18 | 53.78104 | 90.09704 | 26472 ft | 373 kts | 273° |
| 2026-05-03 20:18 | 53.78205 | 90.05308 | 26893 ft | 373 kts | 273° |
| 2026-05-03 20:18 | 53.78304 | 90.00900 | 27291 ft | 375 kts | 273° |
| 2026-05-03 20:18 | 53.78401 | 89.96470 | 27646 ft | 377 kts | 273° |
| 2026-05-03 20:19 | 53.78478 | 89.92971 | 27904 ft | 378 kts | 273° |
| 2026-05-03 20:19 | 53.78576 | 89.88513 | 28256 ft | 380 kts | 273° |
| 2026-05-03 20:19 | 53.78673 | 89.84035 | 28645 ft | 380 kts | 273° |
| 2026-05-03 20:19 | 53.78768 | 89.79576 | 29174 ft | 377 kts | 273° |
| 2026-05-03 20:20 | 53.78859 | 89.75170 | 29801 ft | 372 kts | 273° |
| 2026-05-03 20:20 | 53.78948 | 89.70814 | 30338 ft | 369 kts | 273° |
| 2026-05-03 20:20 | 53.79035 | 89.66524 | 30612 ft | 370 kts | 273° |
| 2026-05-03 20:20 | 53.79122 | 89.62154 | 30835 ft | 373 kts | 273° |
| 2026-05-03 20:21 | 53.79207 | 89.57761 | 31156 ft | 373 kts | 273° |
| 2026-05-03 20:21 | 53.79291 | 89.53366 | 31513 ft | 372 kts | 272° |
| 2026-05-03 20:21 | 53.79373 | 89.48975 | 31817 ft | 373 kts | 272° |
| 2026-05-03 20:21 | 53.79454 | 89.44561 | 32067 ft | 375 kts | 272° |
| 2026-05-03 20:22 | 53.79533 | 89.40149 | 32387 ft | 375 kts | 272° |
| 2026-05-03 20:22 | 53.79611 | 89.35748 | 32722 ft | 375 kts | 272° |
| 2026-05-03 20:22 | 53.79686 | 89.31383 | 33001 ft | 375 kts | 272° |
| 2026-05-03 20:22 | 53.79761 | 89.26964 | 33240 ft | 376 kts | 272° |
| 2026-05-03 20:23 | 53.79837 | 89.22531 | 33492 ft | 377 kts | 272° |
| 2026-05-03 20:23 | 53.79907 | 89.18089 | 33796 ft | 376 kts | 272° |
| 2026-05-03 20:23 | 53.79975 | 89.13665 | 34095 ft | 377 kts | 272° |
| 2026-05-03 20:23 | 53.80043 | 89.09223 | 34302 ft | 378 kts | 272° |
| 2026-05-03 20:24 | 53.80108 | 89.04768 | 34489 ft | 379 kts | 272° |
| 2026-05-03 20:24 | 53.80174 | 89.00301 | 34707 ft | 380 kts | 272° |
| 2026-05-03 20:24 | 53.80240 | 88.95865 | 34898 ft | 381 kts | 272° |
| 2026-05-03 20:24 | 53.80303 | 88.91376 | 35165 ft | 381 kts | 272° |
| 2026-05-03 20:25 | 53.80364 | 88.86886 | 35349 ft | 382 kts | 272° |
| 2026-05-03 20:25 | 53.80422 | 88.82377 | 35542 ft | 383 kts | 272° |
| 2026-05-03 20:25 | 53.80474 | 88.77858 | 35773 ft | 383 kts | 272° |
| 2026-05-03 20:25 | 53.80522 | 88.73345 | 35951 ft | 384 kts | 272° |
| 2026-05-03 20:26 | 53.80569 | 88.68801 | 36023 ft | 386 kts | 272° |
| 2026-05-03 20:26 | 53.80657 | 88.59779 | 36033 ft | 385 kts | 272° |
| 2026-05-03 20:27 | 53.80741 | 88.50695 | 36044 ft | 385 kts | 272° |
| 2026-05-03 20:27 | 53.80818 | 88.41670 | 36018 ft | 385 kts | 272° |
| 2026-05-03 20:28 | 53.80888 | 88.32582 | 36037 ft | 386 kts | 272° |
| 2026-05-03 20:28 | 53.80952 | 88.23490 | 36038 ft | 386 kts | 272° |
| 2026-05-03 20:29 | 53.81003 | 88.15418 | 36045 ft | 386 kts | 271° |
| 2026-05-03 20:29 | 53.81055 | 88.06381 | 36039 ft | 385 kts | 271° |
| 2026-05-03 20:30 | 53.81099 | 87.97305 | 36050 ft | 385 kts | 271° |
| 2026-05-03 20:30 | 53.81113 | 87.88242 | 36044 ft | 385 kts | 271° |
| 2026-05-03 20:31 | 53.81111 | 87.79164 | 36045 ft | 385 kts | 271° |
| 2026-05-03 20:31 | 53.81107 | 87.70137 | 36053 ft | 385 kts | 271° |
| 2026-05-03 20:32 | 53.81100 | 87.62587 | 36056 ft | 385 kts | 271° |
| 2026-05-03 20:32 | 53.81122 | 87.52028 | 36053 ft | 385 kts | 271° |
| 2026-05-03 20:33 | 53.81143 | 87.42950 | 36055 ft | 386 kts | 271° |
| 2026-05-03 20:33 | 53.81154 | 87.35339 | 36045 ft | 386 kts | 271° |
| 2026-05-03 20:34 | 53.81158 | 87.26330 | 36066 ft | 385 kts | 271° |
| 2026-05-03 20:34 | 53.81155 | 87.17250 | 36064 ft | 385 kts | 271° |
| 2026-05-03 20:35 | 53.81146 | 87.08165 | 36067 ft | 385 kts | 271° |
| 2026-05-03 20:35 | 53.81131 | 86.99119 | 36071 ft | 385 kts | 271° |
| 2026-05-03 20:36 | 53.81446 | 86.90061 | 36086 ft | 384 kts | 281° |
| 2026-05-03 20:36 | 53.82917 | 86.81410 | 36060 ft | 386 kts | 291° |
| 2026-05-03 20:37 | 53.85279 | 86.73218 | 36071 ft | 387 kts | 293° |
| 2026-05-03 20:37 | 53.87680 | 86.65034 | 36077 ft | 386 kts | 293° |
| 2026-05-03 20:38 | 53.90036 | 86.56908 | 36084 ft | 386 kts | 293° |
| 2026-05-03 20:38 | 53.92399 | 86.48690 | 36084 ft | 386 kts | 293° |
| 2026-05-03 20:39 | 53.94502 | 86.41344 | 36082 ft | 386 kts | 293° |
| 2026-05-03 20:39 | 53.96835 | 86.33167 | 36086 ft | 386 kts | 293° |
| 2026-05-03 20:40 | 53.99176 | 86.24936 | 36078 ft | 386 kts | 293° |
| 2026-05-03 20:40 | 54.01512 | 86.16698 | 36090 ft | 386 kts | 293° |
| 2026-05-03 20:41 | 54.03850 | 86.08444 | 36086 ft | 387 kts | 292° |
| 2026-05-03 20:41 | 54.06169 | 86.00238 | 36090 ft | 387 kts | 292° |
| 2026-05-03 20:42 | 54.08497 | 85.91969 | 36092 ft | 387 kts | 292° |
| 2026-05-03 20:42 | 54.10820 | 85.83684 | 36092 ft | 387 kts | 292° |
| 2026-05-03 20:43 | 54.13138 | 85.75390 | 36070 ft | 387 kts | 292° |
| 2026-05-03 20:43 | 54.15445 | 85.67104 | 36088 ft | 386 kts | 292° |
| 2026-05-03 20:44 | 54.17733 | 85.58858 | 36046 ft | 388 kts | 292° |
| 2026-05-03 20:44 | 54.18902 | 85.54629 | 35486 ft | 393 kts | 292° |
| 2026-05-03 20:44 | 54.20068 | 85.50412 | 34866 ft | 391 kts | 292° |
| 2026-05-03 20:44 | 54.21222 | 85.46229 | 34227 ft | 390 kts | 292° |
| 2026-05-03 20:45 | 54.22371 | 85.42059 | 33715 ft | 384 kts | 292° |
| 2026-05-03 20:45 | 54.23483 | 85.37944 | 33180 ft | 378 kts | 290° |
| 2026-05-03 20:45 | 54.24434 | 85.33789 | 32762 ft | 370 kts | 288° |
| 2026-05-03 20:45 | 54.25324 | 85.29694 | 32307 ft | 364 kts | 288° |
| 2026-05-03 20:46 | 54.26182 | 85.25696 | 31831 ft | 360 kts | 288° |
| 2026-05-03 20:46 | 54.27037 | 85.21705 | 31368 ft | 355 kts | 288° |
| 2026-05-03 20:46 | 54.27880 | 85.17770 | 30922 ft | 350 kts | 288° |
| 2026-05-03 20:46 | 54.28718 | 85.13869 | 30468 ft | 346 kts | 288° |
| 2026-05-03 20:47 | 54.29546 | 85.10018 | 30008 ft | 342 kts | 288° |
| 2026-05-03 20:47 | 54.30363 | 85.06212 | 29497 ft | 338 kts | 288° |
| 2026-05-03 20:47 | 54.31168 | 85.02465 | 29049 ft | 332 kts | 288° |
| 2026-05-03 20:47 | 54.31961 | 84.98769 | 28593 ft | 328 kts | 288° |
| 2026-05-03 20:48 | 54.32741 | 84.95123 | 28144 ft | 323 kts | 288° |
| 2026-05-03 20:48 | 54.33503 | 84.91560 | 27707 ft | 320 kts | 288° |
| 2026-05-03 20:48 | 54.34263 | 84.87997 | 27265 ft | 316 kts | 288° |
| 2026-05-03 20:48 | 54.35014 | 84.84471 | 26896 ft | 313 kts | 288° |
| 2026-05-03 20:49 | 54.35603 | 84.81704 | 26479 ft | 311 kts | 288° |
| 2026-05-03 20:49 | 54.36341 | 84.78226 | 26057 ft | 309 kts | 288° |
| 2026-05-03 20:49 | 54.37072 | 84.74777 | 25635 ft | 306 kts | 288° |
| 2026-05-03 20:49 | 54.37797 | 84.71352 | 25224 ft | 304 kts | 288° |
| 2026-05-03 20:50 | 54.38521 | 84.67924 | 24838 ft | 305 kts | 289° |
| 2026-05-03 20:50 | 54.39234 | 84.64544 | 24385 ft | 306 kts | 289° |
| 2026-05-03 20:50 | 54.39966 | 84.61068 | 23977 ft | 314 kts | 289° |
| 2026-05-03 20:50 | 54.40721 | 84.57475 | 23487 ft | 323 kts | 289° |
| 2026-05-03 20:51 | 54.41481 | 84.53851 | 22990 ft | 321 kts | 289° |
| 2026-05-03 20:51 | 54.42237 | 84.50246 | 22541 ft | 317 kts | 289° |
| 2026-05-03 20:51 | 54.42979 | 84.46701 | 22097 ft | 313 kts | 289° |
| 2026-05-03 20:51 | 54.43699 | 84.43253 | 21686 ft | 310 kts | 289° |
| 2026-05-03 20:52 | 54.44425 | 84.39767 | 21267 ft | 306 kts | 289° |
| 2026-05-03 20:52 | 54.45139 | 84.36336 | 20845 ft | 304 kts | 289° |
| 2026-05-03 20:52 | 54.45848 | 84.32923 | 20435 ft | 301 kts | 289° |
| 2026-05-03 20:52 | 54.46550 | 84.29536 | 20032 ft | 298 kts | 289° |
| 2026-05-03 20:53 | 54.47244 | 84.26189 | 19634 ft | 296 kts | 289° |
| 2026-05-03 20:53 | 54.47925 | 84.22897 | 19243 ft | 294 kts | 289° |
| 2026-05-03 20:53 | 54.48607 | 84.19588 | 18857 ft | 293 kts | 289° |
| 2026-05-03 20:53 | 54.49284 | 84.16302 | 18463 ft | 291 kts | 289° |
| 2026-05-03 20:54 | 54.50004 | 84.13040 | 18023 ft | 290 kts | 295° |
| 2026-05-03 20:54 | 54.52163 | 84.07215 | 17222 ft | 286 kts | 302° |
| 2026-05-03 20:54 | 54.53283 | 84.04398 | 16840 ft | 284 kts | 301° |
| 2026-05-03 20:55 | 54.54391 | 84.01594 | 16466 ft | 281 kts | 301° |
| 2026-05-03 20:55 | 54.55484 | 83.98808 | 16084 ft | 279 kts | 301° |
| 2026-05-03 20:55 | 54.56549 | 83.96076 | 15720 ft | 277 kts | 301° |
| 2026-05-03 20:55 | 54.57619 | 83.93316 | 15344 ft | 276 kts | 301° |
| 2026-05-03 20:56 | 54.58679 | 83.90572 | 14985 ft | 274 kts | 301° |
| 2026-05-03 20:56 | 54.59738 | 83.87825 | 14619 ft | 273 kts | 301° |
| 2026-05-03 20:56 | 54.60787 | 83.85097 | 14278 ft | 272 kts | 301° |
| 2026-05-03 20:56 | 54.61830 | 83.82380 | 13911 ft | 271 kts | 301° |
| 2026-05-03 20:57 | 54.62870 | 83.79666 | 13506 ft | 270 kts | 301° |
| 2026-05-03 20:57 | 54.63896 | 83.76989 | 13119 ft | 269 kts | 301° |
| 2026-05-03 20:57 | 54.64926 | 83.74294 | 12749 ft | 270 kts | 301° |
| 2026-05-03 20:57 | 54.65968 | 83.71564 | 12388 ft | 274 kts | 301° |
| 2026-05-03 20:58 | 54.67029 | 83.68780 | 12016 ft | 281 kts | 301° |
| 2026-05-03 20:58 | 54.68123 | 83.65907 | 11637 ft | 288 kts | 301° |
| 2026-05-03 20:58 | 54.69228 | 83.63009 | 11244 ft | 288 kts | 301° |
| 2026-05-03 20:58 | 54.70312 | 83.60161 | 10847 ft | 287 kts | 301° |
| 2026-05-03 20:59 | 54.71173 | 83.57894 | 10619 ft | 283 kts | 301° |
| 2026-05-03 20:59 | 54.72220 | 83.55076 | 10481 ft | 273 kts | 298° |
| 2026-05-03 20:59 | 54.73093 | 83.52202 | 10313 ft | 265 kts | 295° |
| 2026-05-03 20:59 | 54.73889 | 83.49374 | 10189 ft | 257 kts | 294° |
| 2026-05-03 21:00 | 54.74653 | 83.46640 | 10030 ft | 250 kts | 294° |
| 2026-05-03 21:00 | 54.74900 | 83.45754 | 9928 ft | 250 kts | 294° |
| 2026-05-03 21:00 | 54.76165 | 83.41265 | 9463 ft | 247 kts | 295° |
| 2026-05-03 21:00 | 54.76918 | 83.38609 | 9200 ft | 244 kts | 295° |
| 2026-05-03 21:01 | 54.77665 | 83.35981 | 8924 ft | 242 kts | 295° |
| 2026-05-03 21:01 | 54.78397 | 83.33406 | 8675 ft | 240 kts | 296° |
| 2026-05-03 21:01 | 54.79135 | 83.30814 | 8397 ft | 239 kts | 296° |
| 2026-05-03 21:01 | 54.79871 | 83.28230 | 8136 ft | 238 kts | 296° |
| 2026-05-03 21:02 | 54.80601 | 83.25653 | 7877 ft | 238 kts | 296° |
| 2026-05-03 21:02 | 54.81330 | 83.23092 | 7601 ft | 236 kts | 297° |
| 2026-05-03 21:02 | 54.82055 | 83.20541 | 7355 ft | 235 kts | 297° |
| 2026-05-03 21:02 | 54.82776 | 83.18006 | 7085 ft | 234 kts | 297° |
| 2026-05-03 21:03 | 54.83491 | 83.15480 | 6836 ft | 232 kts | 297° |
| 2026-05-03 21:03 | 54.84257 | 83.13017 | 6563 ft | 231 kts | 309° |
| 2026-05-03 21:03 | 54.85521 | 83.11334 | 6315 ft | 231 kts | 332° |
| 2026-05-03 21:03 | 54.87052 | 83.10441 | 6018 ft | 235 kts | 344° |
| 2026-05-03 21:04 | 54.88650 | 83.09874 | 5681 ft | 238 kts | 346° |
| 2026-05-03 21:04 | 54.90278 | 83.09324 | 5400 ft | 238 kts | 346° |
| 2026-05-03 21:04 | 54.91897 | 83.08752 | 5127 ft | 236 kts | 343° |
| 2026-05-03 21:04 | 54.93312 | 83.07439 | 4791 ft | 233 kts | 315° |
| 2026-05-03 21:05 | 54.94417 | 83.05352 | 4447 ft | 238 kts | 310° |
| 2026-05-03 21:05 | 54.95519 | 83.03178 | 4056 ft | 241 kts | 310° |
| 2026-05-03 21:05 | 54.96628 | 83.00972 | 3670 ft | 240 kts | 310° |
| 2026-05-03 21:05 | 54.97705 | 82.98838 | 3318 ft | 235 kts | 310° |
| 2026-05-03 21:06 | 54.98765 | 82.96749 | 3134 ft | 223 kts | 310° |
| 2026-05-03 21:06 | 54.99745 | 82.94808 | 2990 ft | 204 kts | 310° |
| 2026-05-03 21:06 | 55.00643 | 82.93028 | 2852 ft | 185 kts | 309° |
| 2026-05-03 21:06 | 55.01448 | 82.91434 | 2691 ft | 165 kts | 309° |
| 2026-05-03 21:07 | 55.02177 | 82.89955 | 2374 ft | 163 kts | 306° |
| 2026-05-03 21:07 | 55.02886 | 82.88459 | 2116 ft | 152 kts | 303° |
| 2026-05-03 21:07 | 55.03133 | 82.86855 | 2029 ft | 134 kts | 265° |
| 2026-05-03 21:07 | 55.03048 | 82.85212 | 2037 ft | 137 kts | 267° |
| 2026-05-03 21:08 | 55.02934 | 82.83560 | 2023 ft | 135 kts | 265° |
| 2026-05-03 21:08 | 55.02769 | 82.81949 | 1983 ft | 132 kts | 263° |
| 2026-05-03 21:08 | 55.02636 | 82.80333 | 1851 ft | 136 kts | 263° |
| 2026-05-03 21:08 | 55.02485 | 82.78678 | 1661 ft | 139 kts | 263° |
| 2026-05-03 21:09 | 55.02368 | 82.77373 | 1502 ft | 139 kts | 263° |
| 2026-05-03 21:09 | 55.02218 | 82.75729 | 1302 ft | 135 kts | 262° |
| 2026-05-03 21:09 | 55.02068 | 82.74097 | 1122 ft | 138 kts | 262° |
| 2026-05-03 21:09 | 55.01917 | 82.72446 | 933 ft | 141 kts | 261° |
| 2026-05-03 21:10 | 55.01759 | 82.70748 | 725 ft | 141 kts | 259° |
| 2026-05-03 21:10 | 55.01604 | 82.69083 | 548 ft | 140 kts | 262° |
| 2026-05-03 21:10 | 55.01458 | 82.67412 | 381 ft | 137 kts | 261° |
| 2026-05-03 21:10 | 55.01327 | 82.65983 | 372 ft | 92 kts | 261° |
| 2026-05-03 21:11 | 55.01259 | 82.65240 | 372 ft | 38 kts | 261° |
| 2026-05-03 21:11 | 55.01218 | 82.65054 | 371 ft | 11 kts | 194° |
| 2026-05-03 21:11 | 55.01161 | 82.65064 | 371 ft | 13 kts | 168° |
| 2026-05-03 21:11 | 55.01075 | 82.65088 | 372 ft | 12 kts | 173° |
| 2026-05-03 21:12 | 55.00963 | 82.65118 | 372 ft | 12 kts | 170° |
| 2026-05-03 21:12 | 55.00889 | 82.65152 | 372 ft | 10 kts | 139° |
| 2026-05-03 21:12 | 55.00883 | 82.65220 | 372 ft | 9 kts | 86° |
| 2026-05-03 21:12 | 55.00892 | 82.65370 | 372 ft | 12 kts | 81° |
| 2026-05-03 21:13 | 55.00908 | 82.65543 | 372 ft | 15 kts | 81° |
| 2026-05-03 21:13 | 55.00918 | 82.65663 | 372 ft | 15 kts | 81° |
| 2026-05-03 21:13 | 55.00934 | 82.65837 | 372 ft | 14 kts | 81° |
| 2026-05-03 21:13 | 55.00948 | 82.66004 | 372 ft | 14 kts | 81° |
| 2026-05-03 21:14 | 55.00975 | 82.66158 | 372 ft | 12 kts | 64° |
| 2026-05-03 21:14 | 55.01000 | 82.66276 | 372 ft | 9 kts | 70° |
| 2026-05-03 21:14 | 55.01012 | 82.66346 | 372 ft | 5 kts | 90° |
| 2026-05-03 21:14 | 55.00993 | 82.66391 | 372 ft | 5 kts | 153° |
| 2026-05-03 21:15 | 55.00965 | 82.66402 | 372 ft | 2 kts | 171° |
| 2026-05-03 21:15 | 55.00954 | 82.66405 | 372 ft | 1 kts | 169° |
| 2026-05-03 21:15 | 55.00950 | 82.66407 | 372 ft | 0 kts | 168° |
| 2026-05-03 21:15 | 55.00948 | 82.66408 | 372 ft | 0 kts | 168° |